Ds Blue Wave — A8YK2 — position and weather

sailwx.info

Track history (hours):
 
Tides and Currents Weather Stations Pressure Air Temp Water Temp Dewpoint Dewpoint Depression Visibility Wind Speed Wind Dir Waves Ship Positions

Ds Blue Wave

Last reported at 2014-Aug-18 18:33 UTC. Time now 2014-Aug-22 21:43 UTC.
Position N 34°52' E 139°22'.

Length 129 m; draft 6.8 m.

Type: Cargo ship. MMSI: 636092200.

Date/timePositionNaut miles runAvg speedWind from/ knotsBaromVisibWave heightAir tempDewpointWater temp
2014-Aug-18 18:33N 34°52' E 139°22'1312.7
2014-Aug-18 17:33N 35°00' E 139°34'1212.5
2014-Aug-18 16:33N 35°09' E 139°45'1211.6
2014-Aug-18 15:33N 35°21' E 139°42'6 5.5
2014-Aug-18 14:31N 35°26' E 139°41'0 0.0
2014-Aug-18 13:28N 35°26' E 139°41'0 0.0
2014-Aug-18 12:31N 35°26' E 139°41'0 0.0
2014-Aug-18 11:31N 35°26' E 139°41'0 0.0
2014-Aug-18 10:31N 35°26' E 139°41'0 0.0
2014-Aug-18 09:31N 35°26' E 139°41'0 0.0
2014-Aug-18 08:31N 35°26' E 139°41'3 3.2
2014-Aug-18 07:33N 35°27' E 139°45'8 8.3
2014-Aug-18 06:34N 35°34' E 139°49'4 4.0
2014-Aug-18 05:33N 35°37' E 139°46'0 0.0
2014-Aug-18 04:15N 35°37' E 139°46'0 0.0
2014-Aug-18 03:27N 35°37' E 139°46'0 0.0
2014-Aug-18 02:33N 35°37' E 139°46'0 0.0
2014-Aug-18 01:24N 35°37' E 139°46'0 0.0
2014-Aug-18 00:18N 35°37' E 139°46'38 6.6
2014-Aug-17 18:33N 34°60' E 139°36'  
2014-Aug-12 08:32N 34°56' E 139°28'1414.1
2014-Aug-12 07:33N 35°05' E 139°40'1212.3
2014-Aug-12 06:33N 35°17' E 139°45'1010.0
2014-Aug-12 05:33N 35°26' E 139°41'0 0.1
2014-Aug-12 04:33N 35°26' E 139°41'0 0.0
2014-Aug-12 03:33N 35°26' E 139°41'0 0.0
2014-Aug-12 02:33N 35°26' E 139°41'0 0.0
2014-Aug-12 01:33N 35°26' E 139°41'0 0.0
2014-Aug-12 00:33N 35°26' E 139°41'0 0.0
2014-Aug-11 23:33N 35°26' E 139°41'0 0.4
2014-Aug-11 22:33N 35°27' E 139°41'1 1.4
2014-Aug-11 21:33N 35°27' E 139°43'0 0.1
2014-Aug-11 20:33N 35°27' E 139°43'0 0.0
2014-Aug-11 19:33N 35°27' E 139°43'0 0.0
2014-Aug-11 18:33N 35°27' E 139°43'0 0.0
2014-Aug-11 17:33N 35°27' E 139°43'0 0.0
2014-Aug-11 16:31N 35°27' E 139°43'1 0.7
2014-Aug-11 15:33N 35°26' E 139°43'9 8.9
2014-Aug-11 14:33N 35°34' E 139°50'5 2.4
2014-Aug-11 12:29N 35°37' E 139°46'0 0.0
2014-Aug-11 11:32N 35°37' E 139°46'0 0.0
2014-Aug-11 10:11N 35°37' E 139°46'0 0.0
2014-Aug-11 09:29N 35°37' E 139°46'0 0.1
2014-Aug-11 08:33N 35°37' E 139°46'8 8.3
2014-Aug-11 07:33N 35°31' E 139°52'1313.3
2014-Aug-11 06:34N 35°19' E 139°44'1313.2
2014-Aug-11 05:33N 35°06' E 139°46'1513.9
2014-Aug-11 04:28N 34°57' E 139°31'  
Track history (hours):
 
Tides and Currents Weather Stations Pressure Air Temp Water Temp Dewpoint Dewpoint Depression Visibility Wind Speed Wind Dir Waves Ship Positions

Ds Blue Wave

Last reported at 2014-Aug-18 18:33 UTC. Time now 2014-Aug-22 21:43 UTC.
Position N 34°52' E 139°22'.

Length 129 m; draft 6.8 m.

Type: Cargo ship. MMSI: 636092200.

Date/timePositionNaut miles runAvg speedWind from/ knotsBaromVisibWave heightAir tempDewpointWater temp
2014-Aug-18 18:33N 34°52' E 139°22'1312.7
2014-Aug-18 17:33N 35°00' E 139°34'1212.5
2014-Aug-18 16:33N 35°09' E 139°45'1211.6
2014-Aug-18 15:33N 35°21' E 139°42'6 5.5
2014-Aug-18 14:31N 35°26' E 139°41'0 0.0
2014-Aug-18 13:28N 35°26' E 139°41'0 0.0
2014-Aug-18 12:31N 35°26' E 139°41'0 0.0
2014-Aug-18 11:31N 35°26' E 139°41'0 0.0
2014-Aug-18 10:31N 35°26' E 139°41'0 0.0
2014-Aug-18 09:31N 35°26' E 139°41'0 0.0
2014-Aug-18 08:31N 35°26' E 139°41'3 3.2
2014-Aug-18 07:33N 35°27' E 139°45'8 8.3
2014-Aug-18 06:34N 35°34' E 139°49'4 4.0
2014-Aug-18 05:33N 35°37' E 139°46'0 0.0
2014-Aug-18 04:15N 35°37' E 139°46'0 0.0
2014-Aug-18 03:27N 35°37' E 139°46'0 0.0
2014-Aug-18 02:33N 35°37' E 139°46'0 0.0
2014-Aug-18 01:24N 35°37' E 139°46'0 0.0
2014-Aug-18 00:18N 35°37' E 139°46'38 6.6
2014-Aug-17 18:33N 34°60' E 139°36'  
2014-Aug-12 08:32N 34°56' E 139°28'1414.1
2014-Aug-12 07:33N 35°05' E 139°40'1212.3
2014-Aug-12 06:33N 35°17' E 139°45'1010.0
2014-Aug-12 05:33N 35°26' E 139°41'0 0.1
2014-Aug-12 04:33N 35°26' E 139°41'0 0.0
2014-Aug-12 03:33N 35°26' E 139°41'0 0.0
2014-Aug-12 02:33N 35°26' E 139°41'0 0.0
2014-Aug-12 01:33N 35°26' E 139°41'0 0.0
2014-Aug-12 00:33N 35°26' E 139°41'0 0.0
2014-Aug-11 23:33N 35°26' E 139°41'0 0.4
2014-Aug-11 22:33N 35°27' E 139°41'1 1.4
2014-Aug-11 21:33N 35°27' E 139°43'0 0.1
2014-Aug-11 20:33N 35°27' E 139°43'0 0.0
2014-Aug-11 19:33N 35°27' E 139°43'0 0.0
2014-Aug-11 18:33N 35°27' E 139°43'0 0.0
2014-Aug-11 17:33N 35°27' E 139°43'0 0.0
2014-Aug-11 16:31N 35°27' E 139°43'1 0.7
2014-Aug-11 15:33N 35°26' E 139°43'9 8.9
2014-Aug-11 14:33N 35°34' E 139°50'5 2.4
2014-Aug-11 12:29N 35°37' E 139°46'0 0.0
2014-Aug-11 11:32N 35°37' E 139°46'0 0.0
2014-Aug-11 10:11N 35°37' E 139°46'0 0.0
2014-Aug-11 09:29N 35°37' E 139°46'0 0.1
2014-Aug-11 08:33N 35°37' E 139°46'8 8.3
2014-Aug-11 07:33N 35°31' E 139°52'1313.3
2014-Aug-11 06:34N 35°19' E 139°44'1313.2
2014-Aug-11 05:33N 35°06' E 139°46'1513.9
2014-Aug-11 04:28N 34°57' E 139°31'  

Dump ship's entire track history